Time;durP1;ratioP1;P1;durP2;ratioP2;P2;SDS_P1;SDS_P2;PMS_P1;PMS_P2;Temp;Humidity;BMP_temperature;BMP_pressure;BME280_temperature;BME280_humidity;BME280_pressure;Samples;Min_cycle;Max_cycle;Signal;HPM_P1;HPM_P2
2022/07/02 00:07:18;;;;;;;6.80;6.10;;;;;;;18.97;72.21;98878.34;434117;1268;111033;-42
2022/07/02 00:17:26;;;;;;;6.70;5.80;;;;;;;18.98;71.96;98865.91;433850;1268;108094;-41
2022/07/02 00:27:37;;;;;;;6.20;5.60;;;;;;;18.92;72.01;98896.48;434150;1268;97958;-42
2022/07/02 00:37:45;;;;;;;7.70;5.60;;;;;;;18.95;72.10;98902.75;433518;1268;108700;-43
2022/07/02 00:47:54;;;;;;;6.90;5.50;;;;;;;18.87;72.24;98918.43;434078;1268;97915;-42
2022/07/02 00:58:02;;;;;;;5.50;4.80;;;;;;;18.87;72.11;98942.49;434186;1268;110155;-42
2022/07/02 01:18:36;;;;;;;6.10;5.30;;;;;;;18.68;72.22;98960.64;433486;1268;97878;-41
2022/07/02 01:28:43;;;;;;;6.40;5.30;;;;;;;18.53;72.31;98978.29;434148;1268;108802;-42
2022/07/02 01:50:58;;;;;;;10.20;6.70;;;;;;;18.36;72.63;98993.00;432160;1269;111479;-45
2022/07/02 02:01:05;;;;;;;7.30;6.30;;;;;;;18.28;72.69;98990.89;434411;1268;109594;-41
2022/07/02 02:22:59;;;;;;;7.70;7.00;;;;;;;18.01;73.29;99017.84;434043;1268;108812;-44
2022/07/02 02:33:07;;;;;;;8.70;7.80;;;;;;;17.89;73.72;99030.09;433666;1268;97488;-42
2022/07/02 02:43:13;;;;;;;10.70;8.80;;;;;;;17.72;74.08;99037.13;434224;1268;110998;-45
2022/07/02 02:53:20;;;;;;;7.30;6.60;;;;;;;17.64;74.16;99035.71;434485;1268;108921;-46
2022/07/02 03:03:28;;;;;;;9.90;8.20;;;;;;;17.57;74.32;99042.66;434022;1268;97477;-42
2022/07/02 03:25:35;;;;;;;7.50;6.80;;;;;;;17.57;74.48;99063.56;433500;1268;97480;-42
2022/07/02 03:35:41;;;;;;;10.20;7.40;;;;;;;17.43;74.84;99063.73;433840;1268;110954;-41
2022/07/02 03:45:48;;;;;;;9.70;8.10;;;;;;;17.40;75.06;99077.16;433602;1268;107165;-44
2022/07/02 03:55:55;;;;;;;11.20;8.20;;;;;;;17.34;75.22;99091.52;434109;1268;97504;-43
2022/07/02 04:05:59;;;;;;;9.20;7.60;;;;;;;17.40;75.24;99103.35;434747;1268;108680;-44
2022/07/02 04:27:20;;;;;;;12.40;9.00;;;;;;;17.35;75.26;99115.00;433696;1268;111045;-47
2022/07/02 04:37:28;;;;;;;12.20;7.80;;;;;;;17.31;75.33;99118.08;433848;1268;109089;-43
2022/07/02 04:47:35;;;;;;;12.50;7.60;;;;;;;17.10;75.81;99121.45;433787;1268;97944;-42
2022/07/02 04:57:42;;;;;;;8.60;6.40;;;;;;;17.02;75.93;99133.70;434314;1268;108992;-43
2022/07/02 05:07:50;;;;;;;7.50;5.50;;;;;;;16.97;76.34;99136.34;433731;1268;97897;-41
2022/07/02 05:29:59;;;;;;;5.40;3.80;;;;;;;16.91;76.77;99148.06;433640;1268;109126;-44
2022/07/02 05:50:27;;;;;;;3.80;2.90;;;;;;;17.12;76.95;99170.16;433603;1268;109675;-42
2022/07/02 06:00:33;;;;;;;3.80;2.80;;;;;;;17.17;76.73;99187.64;433801;1268;97591;-44
2022/07/02 06:10:40;;;;;;;3.30;2.80;;;;;;;17.26;76.71;99208.51;433597;1268;111089;-44
2022/07/02 06:32:09;;;;;;;3.30;2.20;;;;;;;17.80;76.36;99235.73;433547;1269;97890;-40
2022/07/02 06:42:22;;;;;;;4.70;3.30;;;;;;;17.85;76.13;99259.63;433697;1268;108868;-41
2022/07/02 07:02:36;;;;;;;6.90;2.90;;;;;;;17.76;75.54;99286.74;433772;1268;111175;-41
2022/07/02 07:12:43;;;;;;;3.60;2.40;;;;;;;17.76;75.73;99289.85;433800;1268;108736;-41
2022/07/02 07:23:13;;;;;;;4.30;2.30;;;;;;;17.90;75.33;99298.36;434129;1268;97401;-43
2022/07/02 07:33:20;;;;;;;2.50;2.20;;;;;;;17.73;75.31;99317.38;434164;1268;111034;-43
2022/07/02 07:43:28;;;;;;;2.50;2.30;;;;;;;17.69;75.15;99328.44;433669;1268;108785;-42
2022/07/02 07:53:35;;;;;;;3.20;2.30;;;;;;;17.88;75.26;99342.40;433628;1268;97580;-42
2022/07/02 08:03:43;;;;;;;3.60;1.90;;;;;;;18.01;74.96;99343.80;432923;1271;107860;-42
2022/07/02 08:13:50;;;;;;;1.40;1.40;;;;;;;17.97;74.59;99354.21;433484;1268;97920;-42
2022/07/02 08:35:59;;;;;;;3.40;2.30;;;;;;;17.95;74.27;99364.64;433388;1268;109098;-40
2022/07/02 08:46:08;;;;;;;4.60;1.90;;;;;;;18.26;74.36;99363.72;433589;1268;97923;-40
2022/07/02 08:56:17;;;;;;;2.20;1.90;;;;;;;18.52;73.82;99359.96;426140;1268;10379141;-42
2022/07/02 09:16:38;;;;;;;5.30;1.60;;;;;;;18.73;73.39;99375.94;433636;1268;110700;-44
2022/07/02 09:38:17;;;;;;;2.50;2.00;;;;;;;19.21;72.44;99384.91;433662;1268;97504;-41
2022/07/02 09:48:24;;;;;;;8.70;1.50;;;;;;;19.52;71.95;99393.13;433970;1268;111281;-43
2022/07/02 09:58:32;;;;;;;3.60;1.40;;;;;;;19.55;71.38;99395.38;434067;1268;109588;-42
2022/07/02 10:08:41;;;;;;;1.90;1.80;;;;;;;19.19;71.04;99401.42;433701;1268;97980;-41
2022/07/02 10:18:49;;;;;;;2.00;1.90;;;;;;;19.21;71.03;99401.16;433845;1268;110884;-42
2022/07/02 10:29:18;;;;;;;;;;;;;;;19.56;70.85;99406.05;434307;1268;108938;-41
2022/07/02 10:39:26;;;;;;;4.10;2.50;;;;;;;19.81;70.14;99413.30;433567;1268;97928;-42
2022/07/02 10:49:34;;;;;;;2.60;2.20;;;;;;;20.02;69.86;99418.89;433903;1268;111015;-42
2022/07/02 11:01:07;;;;;;;2.00;1.70;;;;;;;19.93;69.21;99418.92;431939;1273;109661;-43
2022/07/02 11:23:11;;;;;;;2.70;2.40;;;;;;;20.33;68.52;99412.69;433533;1268;109341;-42
2022/07/02 11:33:16;;;;;;;;;;;;;;;20.59;67.88;99410.48;433764;1267;97913;-42
2022/07/02 11:43:23;;;;;;;2.10;1.90;;;;;;;20.85;67.66;99409.93;433998;1268;110593;-42
2022/07/02 11:53:30;;;;;;;2.40;1.40;;;;;;;20.97;67.05;99414.27;433565;1268;108933;-41
2022/07/02 12:03:37;;;;;;;3.20;1.70;;;;;;;21.34;66.14;99414.31;433960;1268;98002;-40
2022/07/02 12:13:45;;;;;;;7.60;1.50;;;;;;;21.41;65.28;99415.77;433677;1268;111047;-43
2022/07/02 12:23:53;;;;;;;2.70;1.30;;;;;;;21.51;64.67;99424.34;434339;1269;108892;-41
2022/07/02 12:34:00;;;;;;;3.90;0.90;;;;;;;21.78;64.19;99424.39;433777;1268;97887;-42
2022/07/02 12:44:15;;;;;;;3.40;1.10;;;;;;;22.15;63.92;99421.26;434148;1268;97891;-40
2022/07/02 12:54:37;;;;;;;2.80;1.00;;;;;;;22.48;62.88;99416.16;433191;1270;111145;-41
2022/07/02 13:16:47;;;;;;;3.30;2.50;;;;;;;21.68;61.54;99413.31;433369;1268;98006;-41
2022/07/02 13:38:43;;;;;;;5.50;2.20;;;;;;;21.41;61.91;99417.70;433747;1268;109111;-42
2022/07/02 13:48:50;;;;;;;3.60;2.00;;;;;;;21.43;61.65;99415.85;434159;1268;97896;-45
2022/07/02 13:58:58;;;;;;;2.20;1.40;;;;;;;21.54;61.77;99414.03;433257;1270;97889;-42
2022/07/02 14:09:06;;;;;;;1.70;1.60;;;;;;;21.90;61.53;99411.39;433998;1268;111232;-41
2022/07/02 14:19:13;;;;;;;27.30;3.10;;;;;;;21.82;60.89;99410.61;434557;1268;108677;-42
2022/07/02 14:29:20;;;;;;;2.00;1.20;;;;;;;21.97;60.68;99408.13;434174;1268;97890;-43
2022/07/02 14:39:27;;;;;;;3.40;1.40;;;;;;;22.19;60.36;99395.27;433363;1270;111042;-42
2022/07/02 14:49:35;;;;;;;1.50;1.30;;;;;;;22.22;59.58;99389.52;433876;1268;109092;-43
2022/07/02 14:59:42;;;;;;;1.20;1.10;;;;;;;22.18;59.24;99379.33;433971;1269;98440;-41
2022/07/02 15:09:49;;;;;;;5.40;1.30;;;;;;;22.17;58.67;99369.16;434193;1267;111091;-41
2022/07/02 15:19:56;;;;;;;3.10;1.10;;;;;;;21.87;58.32;99365.38;433540;1268;108123;-43
2022/07/02 15:42:08;;;;;;;2.10;1.10;;;;;;;21.73;58.08;99360.84;433704;1268;97993;-44
2022/07/02 15:52:14;;;;;;;3.00;1.20;;;;;;;21.92;58.18;99346.85;434217;1269;111111;-43
2022/07/02 16:02:26;;;;;;;3.60;1.10;;;;;;;21.92;57.45;99345.08;434258;1267;108828;-44
2022/07/02 16:12:32;;;;;;;3.60;1.10;;;;;;;21.75;56.92;99345.74;433289;1270;96665;-42
2022/07/02 16:22:38;;;;;;;4.00;3.30;;;;;;;21.38;56.97;99343.94;434275;1267;111059;-41
2022/07/02 16:44:43;;;;;;;1.40;1.30;;;;;;;20.71;57.05;99339.32;433696;1268;97925;-41
2022/07/02 16:54:52;;;;;;;1.70;1.40;;;;;;;20.20;57.93;99335.86;434563;1268;111142;-40
2022/07/02 17:05:01;;;;;;;2.90;1.50;;;;;;;19.99;58.75;99336.81;433976;1268;108758;-40
2022/07/02 17:15:09;;;;;;;3.90;2.00;;;;;;;19.89;59.68;99330.20;433878;1267;98037;-43
2022/07/02 17:25:17;;;;;;;3.20;2.60;;;;;;;19.86;60.08;99328.37;433811;1268;111436;-40
2022/07/02 17:35:23;;;;;;;1.80;1.40;;;;;;;19.86;60.48;99324.93;433584;1268;108797;-41
2022/07/02 17:45:27;;;;;;;2.80;2.10;;;;;;;19.79;60.94;99322.33;433941;1268;96660;-40
2022/07/02 17:55:46;;;;;;;6.80;2.00;;;;;;;19.64;61.26;99317.31;433590;1268;109539;-39
2022/07/02 18:05:53;;;;;;;3.10;2.20;;;;;;;19.60;61.38;99316.19;433135;1269;97464;-41
2022/07/02 18:16:00;;;;;;;3.80;2.00;;;;;;;19.53;61.53;99309.48;433751;1268;111109;-41
2022/07/02 18:26:08;;;;;;;3.30;1.80;;;;;;;19.47;61.92;99308.90;433693;1267;109081;-42
2022/07/02 18:48:18;;;;;;;2.40;2.30;;;;;;;18.99;62.55;99315.05;433695;1268;111495;-41
2022/07/02 18:58:25;;;;;;;7.70;3.10;;;;;;;18.78;63.04;99310.33;433802;1269;107144;-40
2022/07/02 19:08:32;;;;;;;5.20;3.90;;;;;;;18.46;63.27;99304.35;433859;1268;97588;-43
2022/07/02 19:18:39;;;;;;;5.70;4.20;;;;;;;18.21;63.96;99303.14;434025;1268;108819;-41
2022/07/02 19:39:17;;;;;;;3.90;3.40;;;;;;;17.78;64.88;99305.22;434004;1268;111091;-40
2022/07/02 19:49:25;;;;;;;3.70;3.40;;;;;;;17.51;65.47;99304.61;433821;1268;108127;-40
2022/07/02 19:59:33;;;;;;;5.10;4.60;;;;;;;17.33;65.91;99300.12;433715;1268;97920;-40
2022/07/02 20:09:41;;;;;;;7.20;6.50;;;;;;;17.21;66.39;99302.63;434499;1268;108797;-40
2022/07/02 20:19:49;;;;;;;9.10;7.30;;;;;;;16.92;66.76;99295.10;433877;1268;98045;-40
2022/07/02 20:29:57;;;;;;;6.90;6.20;;;;;;;16.68;67.00;99301.81;433762;1268;112050;-44
2022/07/02 20:51:52;;;;;;;7.60;6.70;;;;;;;16.35;67.95;99291.11;433731;1268;487202;-42
2022/07/02 21:02:00;;;;;;;6.40;5.80;;;;;;;16.21;68.14;99297.04;435134;1268;108760;-41
2022/07/02 21:22:15;;;;;;;9.60;8.30;;;;;;;16.00;68.73;99318.88;434892;1269;110435;-43
2022/07/02 21:32:22;;;;;;;13.40;10.90;;;;;;;15.80;69.04;99313.55;433644;1269;109084;-42
2022/07/02 21:43:08;;;;;;;15.10;11.40;;;;;;;15.41;69.20;99301.52;432462;1271;97866;-40
2022/07/02 21:53:15;;;;;;;13.00;9.70;;;;;;;15.31;69.90;99291.14;432877;1271;110924;-40
2022/07/02 22:15:16;;;;;;;11.20;7.50;;;;;;;14.92;70.17;99282.19;433490;1269;97485;-40
2022/07/02 22:25:24;;;;;;;9.60;8.00;;;;;;;14.84;70.64;99275.59;434321;1268;108655;-41
2022/07/02 22:35:31;;;;;;;13.00;8.30;;;;;;;14.76;70.79;99268.22;433679;1268;97927;-42
2022/07/02 22:46:02;;;;;;;12.60;9.50;;;;;;;14.69;71.12;99274.55;433946;1268;111254;-41
2022/07/02 22:56:11;;;;;;;13.00;11.20;;;;;;;14.72;71.36;99277.48;433816;1269;107810;-40
2022/07/02 23:06:17;;;;;;;12.50;10.60;;;;;;;14.46;71.14;99273.91;433554;1268;98028;-43
2022/07/02 23:16:25;;;;;;;15.50;10.00;;;;;;;13.93;71.27;99271.72;433027;1270;111196;-41
2022/07/02 23:26:32;;;;;;;10.80;8.70;;;;;;;13.64;71.49;99273.14;433417;1268;108559;-43
2022/07/02 23:47:05;;;;;;;14.10;11.90;;;;;;;13.34;71.83;99260.34;433432;1270;108953;-45
2022/07/02 23:57:12;;;;;;;16.70;10.80;;;;;;;13.18;72.21;99250.95;433588;1268;97900;-43
